Terminal Aerodrome Forecast
Issued by NWS

Home | Current Version | Previous Version | Graphics & Text | Print | Product List | Glossary On
Versions: 1 2 3 4 5 6 7 8 9 10 11 12 13 14 15 16 17 18 19 20
000
FTUS43 KGRB 251720
TAFCWA
TAF
KCWA 251720Z 2518/2618 24015G25KT P6SM BKN035
     FM260000 21009KT P6SM VCSH SCT015 BKN028
      TEMPO 2600/2603 3SM -TSRA BKN015CB
     FM260500 21004KT 3SM BR SCT007 BKN010
     FM260900 21004KT 1 1/2SM BR BKN004
     FM261500 22007G14KT P6SM BKN028 PROB30 2615/2618 4SM -SHRA=

USA.gov is the U.S. government's official web portal to all federal, state and local government web resources and services.